createdAt,value
2017-09-13T00:02:21.433Z,12.60
2017-09-13T00:04:48.826Z,12.76
2017-09-13T00:07:16.215Z,12.75
2017-09-13T00:09:43.609Z,12.64
2017-09-13T00:12:11.051Z,12.66
2017-09-13T00:14:38.448Z,12.62
2017-09-13T00:17:05.827Z,12.64
2017-09-13T00:19:33.225Z,12.63
2017-09-13T00:22:00.605Z,12.69
2017-09-13T00:24:28.029Z,12.94
2017-09-13T00:26:55.411Z,12.97
2017-09-13T00:29:22.813Z,12.97
2017-09-13T00:31:50.199Z,12.87
2017-09-13T00:34:17.578Z,12.89
2017-09-13T00:36:44.974Z,12.74
2017-09-13T00:39:12.370Z,12.79
2017-09-13T00:41:39.750Z,12.97
2017-09-13T00:44:07.147Z,12.98
2017-09-13T00:46:34.536Z,12.93
2017-09-13T00:49:01.915Z,12.72
2017-09-13T00:51:29.309Z,12.87
2017-09-13T00:53:56.783Z,12.87
2017-09-13T00:56:24.174Z,12.75
2017-09-13T00:58:51.594Z,12.91
2017-09-13T01:01:18.987Z,12.64
2017-09-13T01:03:46.413Z,12.63
2017-09-13T01:06:13.799Z,12.81
2017-09-13T01:08:41.186Z,12.56
2017-09-13T01:11:08.582Z,12.72
2017-09-13T01:13:35.962Z,12.49
2017-09-13T01:16:03.354Z,12.42
2017-09-13T01:18:30.742Z,12.31
2017-09-13T01:20:58.192Z,12.37
2017-09-13T01:23:25.575Z,12.57
2017-09-13T01:25:52.979Z,12.49
2017-09-13T01:28:20.459Z,12.40
2017-09-13T01:30:47.945Z,12.32
2017-09-13T01:33:15.329Z,12.36
2017-09-13T01:35:42.715Z,12.40
2017-09-13T01:38:10.106Z,12.49
2017-09-13T01:40:37.490Z,12.66
2017-09-13T01:43:04.889Z,12.48
2017-09-13T01:45:32.274Z,12.54
2017-09-13T01:48:00.427Z,12.54
2017-09-13T01:50:27.817Z,12.36
2017-09-13T01:52:55.204Z,12.48
2017-09-13T01:55:22.690Z,12.41
2017-09-13T01:57:50.079Z,12.42
2017-09-13T02:00:17.474Z,12.35
2017-09-13T02:02:44.954Z,12.46
2017-09-13T02:05:12.349Z,12.51
2017-09-13T02:07:39.739Z,12.38
2017-09-13T02:10:07.122Z,12.43
2017-09-13T02:12:34.524Z,12.43
2017-09-13T02:15:01.902Z,12.40
2017-09-13T02:17:29.294Z,12.34
2017-09-13T02:19:56.679Z,12.39
2017-09-13T02:22:24.077Z,12.31
2017-09-13T02:24:51.555Z,12.38
2017-09-13T02:27:18.947Z,12.49
2017-09-13T02:29:46.334Z,12.54
2017-09-13T02:32:13.723Z,12.43
2017-09-13T02:34:41.110Z,12.42
2017-09-13T02:37:08.497Z,12.51
2017-09-13T02:39:35.882Z,12.56
2017-09-13T02:42:03.265Z,12.48
2017-09-13T02:44:30.650Z,12.49
2017-09-13T02:46:58.046Z,12.55
2017-09-13T02:49:25.444Z,12.52
2017-09-13T02:51:52.831Z,12.57
2017-09-13T02:54:20.315Z,12.59
2017-09-13T02:56:47.698Z,12.49
2017-09-13T02:59:15.090Z,12.63
2017-09-13T03:01:42.474Z,12.68
2017-09-13T03:04:09.882Z,12.72
2017-09-13T03:06:37.262Z,12.72
2017-09-13T03:09:04.650Z,12.77
2017-09-13T03:11:32.035Z,12.67
2017-09-13T03:13:59.429Z,12.57
2017-09-13T03:16:26.815Z,12.64
2017-09-13T03:18:54.295Z,12.62
2017-09-13T03:21:21.675Z,12.54
2017-09-13T03:23:49.083Z,12.55
2017-09-13T03:26:16.475Z,12.51
2017-09-13T03:28:43.864Z,12.50
2017-09-13T03:31:11.248Z,12.53
2017-09-13T03:33:38.684Z,12.59
2017-09-13T03:36:06.066Z,12.54
2017-09-13T03:38:33.451Z,12.47
2017-09-13T03:41:00.865Z,12.33
2017-09-13T03:43:28.242Z,12.39
2017-09-13T03:45:55.630Z,12.40
2017-09-13T03:48:23.039Z,12.33
2017-09-13T03:50:50.486Z,12.36
2017-09-13T03:53:17.942Z,12.30
2017-09-13T03:55:45.404Z,12.25
2017-09-13T03:58:12.794Z,12.22
2017-09-13T04:00:40.183Z,12.30
2017-09-13T04:03:07.575Z,12.15
2017-09-13T04:05:34.967Z,12.04
2017-09-13T04:08:02.383Z,12.06
2017-09-13T04:10:29.775Z,12.08
2017-09-13T04:12:57.165Z,12.05
2017-09-13T04:15:24.560Z,12.07
2017-09-13T04:17:51.947Z,12.02
2017-09-13T04:20:19.415Z,11.94
2017-09-13T04:22:46.798Z,12.09
2017-09-13T04:25:14.181Z,11.97
2017-09-13T04:27:41.570Z,11.88
2017-09-13T04:30:08.950Z,11.78
2017-09-13T04:32:36.431Z,11.72
2017-09-13T04:35:03.816Z,11.72
2017-09-13T04:37:31.213Z,11.75
2017-09-13T04:39:58.594Z,11.79
2017-09-13T04:42:25.991Z,11.70
2017-09-13T04:44:53.389Z,11.78
2017-09-13T04:47:20.780Z,11.72
2017-09-13T04:49:48.172Z,11.71
2017-09-13T04:52:15.588Z,11.63
2017-09-13T04:54:42.966Z,11.63
2017-09-13T04:57:10.367Z,11.63
2017-09-13T04:59:37.758Z,11.64
2017-09-13T05:02:05.151Z,11.61
2017-09-13T05:04:32.537Z,11.58
2017-09-13T05:06:59.935Z,11.47
2017-09-13T05:09:27.327Z,11.50
2017-09-13T05:11:54.716Z,11.44
2017-09-13T05:14:22.094Z,11.49
2017-09-13T05:16:49.474Z,11.57
2017-09-13T05:21:47.868Z,11.58
2017-09-13T05:24:15.267Z,11.64
2017-09-13T05:26:42.659Z,11.61
2017-09-13T05:29:10.052Z,11.64
2017-09-13T05:31:37.442Z,11.58
2017-09-13T05:34:04.839Z,11.54
2017-09-13T05:36:32.250Z,11.52
2017-09-13T05:38:59.631Z,11.54
2017-09-13T05:41:27.011Z,11.57
2017-09-13T05:43:54.403Z,11.54
2017-09-13T05:46:21.791Z,11.65
2017-09-13T05:48:49.179Z,11.62
2017-09-13T05:51:16.567Z,11.82
2017-09-13T05:53:44.048Z,11.68
2017-09-13T05:56:11.431Z,11.66
2017-09-13T05:58:38.826Z,11.64
2017-09-13T06:01:06.211Z,11.63
2017-09-13T06:03:33.605Z,11.68
2017-09-13T06:06:00.987Z,11.75
2017-09-13T06:08:28.476Z,11.88
2017-09-13T06:10:55.862Z,11.93
2017-09-13T06:13:23.255Z,12.06
2017-09-13T06:15:50.742Z,12.06
2017-09-13T06:18:18.135Z,12.02
2017-09-13T06:20:45.604Z,11.90
2017-09-13T06:23:13.006Z,11.92
2017-09-13T06:25:40.396Z,12.00
2017-09-13T06:28:07.790Z,12.01
2017-09-13T06:30:35.205Z,12.05
2017-09-13T06:33:02.583Z,12.11
2017-09-13T06:35:30.088Z,12.04
2017-09-13T06:37:57.482Z,12.07
2017-09-13T06:40:24.866Z,12.14
2017-09-13T06:42:52.250Z,12.26
2017-09-13T06:45:19.639Z,12.28
2017-09-13T06:47:47.026Z,12.23
2017-09-13T06:50:14.415Z,12.29
2017-09-13T06:52:41.804Z,12.33
2017-09-13T06:55:09.295Z,12.37
2017-09-13T06:57:36.743Z,12.44
2017-09-13T07:00:04.140Z,12.45
2017-09-13T07:02:31.529Z,12.55
2017-09-13T07:04:58.912Z,12.62
2017-09-13T07:07:26.291Z,12.62
2017-09-13T07:09:53.674Z,12.66
2017-09-13T07:12:21.062Z,12.69
2017-09-13T07:14:48.455Z,12.76
2017-09-13T07:17:15.834Z,12.79
2017-09-13T07:19:43.226Z,12.78
2017-09-13T07:22:10.603Z,12.82
2017-09-13T07:24:38.053Z,12.91
2017-09-13T07:27:05.442Z,13.02
2017-09-13T07:29:32.831Z,13.09
2017-09-13T07:32:00.215Z,13.21
2017-09-13T07:34:27.604Z,13.16
2017-09-13T07:36:54.996Z,13.29
2017-09-13T07:39:22.380Z,13.29
2017-09-13T07:41:49.783Z,13.36
2017-09-13T07:44:17.171Z,13.48
2017-09-13T07:46:44.560Z,13.57
2017-09-13T07:49:11.938Z,13.53
2017-09-13T07:51:39.331Z,13.52
2017-09-13T07:54:06.719Z,13.54
2017-09-13T07:56:34.114Z,13.80
2017-09-13T07:59:01.522Z,13.95
2017-09-13T08:01:28.914Z,14.38
2017-09-13T08:03:56.307Z,14.68
2017-09-13T08:06:23.695Z,14.68
2017-09-13T08:08:51.070Z,14.72
2017-09-13T08:11:18.458Z,14.82
2017-09-13T08:13:45.847Z,14.79
2017-09-13T08:16:13.235Z,14.78
2017-09-13T08:18:40.672Z,14.97
2017-09-13T08:21:08.058Z,15.06
2017-09-13T08:23:35.447Z,15.14
2017-09-13T08:26:02.843Z,15.20
2017-09-13T08:28:30.223Z,15.30
2017-09-13T08:30:57.619Z,15.31
2017-09-13T08:33:25.006Z,15.33
2017-09-13T08:35:52.390Z,15.07
2017-09-13T08:38:19.778Z,15.06
2017-09-13T08:40:47.170Z,14.97
2017-09-13T08:43:14.560Z,14.97
2017-09-13T08:45:41.947Z,14.97
2017-09-13T08:48:09.344Z,14.96
2017-09-13T08:50:36.723Z,14.98
2017-09-13T08:53:04.115Z,15.07
2017-09-13T08:55:31.513Z,15.32
2017-09-13T08:57:58.955Z,15.44
2017-09-13T09:00:26.351Z,15.38
2017-09-13T09:02:53.750Z,15.47
2017-09-13T09:05:21.145Z,15.57
2017-09-13T09:07:48.536Z,15.65
2017-09-13T09:10:15.914Z,15.61
2017-09-13T09:12:43.304Z,15.55
2017-09-13T09:15:10.683Z,15.35
2017-09-13T09:17:38.079Z,15.26
2017-09-13T09:20:05.558Z,15.33
2017-09-13T09:22:32.942Z,15.48
2017-09-13T09:25:00.329Z,15.50
2017-09-13T09:27:27.739Z,15.69
2017-09-13T09:29:55.158Z,15.77
2017-09-13T09:32:22.543Z,15.68
2017-09-13T09:34:49.934Z,15.83
2017-09-13T09:37:17.323Z,15.87
2017-09-13T09:39:44.810Z,16.07
2017-09-13T09:42:12.201Z,16.58
2017-09-13T09:44:39.617Z,16.61
2017-09-13T09:47:07.071Z,16.62
2017-09-13T09:49:34.458Z,16.60
2017-09-13T09:52:01.846Z,16.61
2017-09-13T09:54:29.248Z,17.00
2017-09-13T09:56:56.619Z,17.42
2017-09-13T09:59:24.019Z,17.67
2017-09-13T10:01:51.413Z,17.61
2017-09-13T10:04:18.798Z,17.84
2017-09-13T10:06:46.183Z,17.92
2017-09-13T10:09:13.667Z,17.82
2017-09-13T10:11:41.054Z,18.05
2017-09-13T10:14:08.446Z,17.67
2017-09-13T10:16:35.835Z,17.63
2017-09-13T10:19:03.222Z,17.58
2017-09-13T10:21:30.610Z,17.62
2017-09-13T10:23:58.002Z,17.63
2017-09-13T10:26:25.395Z,17.86
2017-09-13T10:28:52.791Z,18.21
2017-09-13T10:31:20.268Z,18.33
2017-09-13T10:33:47.668Z,18.11
2017-09-13T10:36:15.059Z,18.26
2017-09-13T10:38:44.435Z,18.40
2017-09-13T10:41:11.821Z,18.52
2017-09-13T10:43:39.212Z,18.70
2017-09-13T10:46:06.595Z,18.90
2017-09-13T10:48:33.982Z,18.74
2017-09-13T10:51:01.367Z,18.46
2017-09-13T10:53:28.760Z,18.54
2017-09-13T10:55:56.146Z,18.34
2017-09-13T10:58:23.623Z,18.24
2017-09-13T11:00:51.014Z,18.33
2017-09-13T11:03:18.399Z,18.29
2017-09-13T11:05:45.792Z,18.08
2017-09-13T11:08:13.179Z,18.16
2017-09-13T11:10:40.579Z,18.17
2017-09-13T11:13:07.955Z,18.20
2017-09-13T11:15:35.347Z,18.29
2017-09-13T11:18:02.731Z,18.26
2017-09-13T11:20:30.190Z,18.12
2017-09-13T11:22:57.578Z,18.33
2017-09-13T11:25:24.972Z,18.56
2017-09-13T11:27:52.352Z,18.48
2017-09-13T11:30:19.747Z,18.22
2017-09-13T11:32:47.132Z,18.14
2017-09-13T11:35:14.531Z,18.30
2017-09-13T11:37:41.919Z,18.28
2017-09-13T11:40:09.311Z,18.36
2017-09-13T11:42:36.703Z,18.47
2017-09-13T11:45:04.095Z,18.78
2017-09-13T11:47:31.478Z,18.87
2017-09-13T11:49:58.866Z,18.76
2017-09-13T11:52:26.270Z,18.67
2017-09-13T11:54:53.654Z,18.73
2017-09-13T11:57:21.034Z,18.54
2017-09-13T11:59:48.428Z,18.60
2017-09-13T12:02:15.815Z,18.89
2017-09-13T12:04:43.223Z,18.98
2017-09-13T12:07:10.617Z,19.24
2017-09-13T12:09:38.002Z,19.15
2017-09-13T12:12:05.383Z,19.03
2017-09-13T12:14:32.776Z,19.07
2017-09-13T12:17:00.155Z,19.24
2017-09-13T12:19:27.548Z,19.49
2017-09-13T12:21:54.935Z,19.50
2017-09-13T12:24:22.327Z,19.64
2017-09-13T12:26:49.709Z,19.72
2017-09-13T12:29:17.105Z,19.65
2017-09-13T12:31:44.493Z,19.40
2017-09-13T12:34:11.892Z,19.02
2017-09-13T12:36:39.272Z,18.82
2017-09-13T12:39:06.656Z,18.60
2017-09-13T12:41:34.052Z,18.43
2017-09-13T12:44:01.440Z,18.25
2017-09-13T12:46:28.835Z,17.99
2017-09-13T12:48:56.218Z,17.82
2017-09-13T12:51:23.606Z,17.93
2017-09-13T12:53:50.990Z,17.75
2017-09-13T12:56:18.378Z,17.53
2017-09-13T12:58:45.785Z,17.15
2017-09-13T13:01:13.189Z,16.93
2017-09-13T13:03:40.568Z,16.87
2017-09-13T13:06:07.964Z,16.90
2017-09-13T13:08:35.340Z,17.18
2017-09-13T13:11:02.760Z,17.46
2017-09-13T13:13:30.147Z,17.49
2017-09-13T13:15:57.547Z,17.79
2017-09-13T13:18:24.933Z,17.84
2017-09-13T13:20:52.316Z,17.65
2017-09-13T13:23:19.706Z,17.36
2017-09-13T13:25:47.093Z,17.22
2017-09-13T13:28:14.475Z,17.28
2017-09-13T13:30:41.855Z,17.30
2017-09-13T13:33:09.263Z,17.49
2017-09-13T13:35:36.644Z,17.83
2017-09-13T13:38:04.034Z,17.90
2017-09-13T13:40:31.424Z,18.09
2017-09-13T13:42:58.807Z,18.28
2017-09-13T13:45:26.199Z,18.22
2017-09-13T13:47:53.592Z,18.19
2017-09-13T13:50:21.036Z,18.09
2017-09-13T13:52:48.491Z,18.00
2017-09-13T13:55:15.951Z,17.75
2017-09-13T13:57:43.347Z,17.56
2017-09-13T14:00:10.761Z,17.64
2017-09-13T14:02:38.155Z,18.03
2017-09-13T14:05:05.541Z,18.25
2017-09-13T14:07:32.936Z,18.36
2017-09-13T14:10:00.312Z,18.05
2017-09-13T14:12:27.704Z,18.01
2017-09-13T14:14:55.095Z,18.11
2017-09-13T14:17:22.482Z,17.82
2017-09-13T14:19:49.901Z,17.88
2017-09-13T14:22:17.274Z,17.95
2017-09-13T14:24:44.651Z,17.98
2017-09-13T14:27:12.039Z,17.76
2017-09-13T14:29:39.427Z,17.80
2017-09-13T14:32:06.811Z,17.70
2017-09-13T14:34:34.204Z,17.56
2017-09-13T14:37:01.591Z,17.48
2017-09-13T14:39:28.991Z,17.61
2017-09-13T14:41:56.374Z,17.58
2017-09-13T14:44:23.759Z,17.67
2017-09-13T14:46:51.155Z,17.84
2017-09-13T14:49:18.550Z,17.93
2017-09-13T14:51:45.940Z,17.73
2017-09-13T14:54:13.340Z,17.82
2017-09-13T14:56:40.722Z,17.67
2017-09-13T14:59:08.111Z,17.71
2017-09-13T15:01:35.532Z,17.83
2017-09-13T15:04:02.931Z,17.78
2017-09-13T15:06:30.312Z,17.79
2017-09-13T15:08:57.820Z,17.69
2017-09-13T15:11:25.203Z,17.59
2017-09-13T15:13:52.587Z,17.49
2017-09-13T15:16:19.978Z,17.24
2017-09-13T15:18:47.383Z,17.10
2017-09-13T15:21:14.766Z,17.13
2017-09-13T15:23:42.152Z,17.15
2017-09-13T15:26:09.542Z,17.14
2017-09-13T15:28:36.935Z,17.26
2017-09-13T15:31:04.329Z,17.18
2017-09-13T15:33:31.711Z,17.12
2017-09-13T15:35:59.103Z,17.15
2017-09-13T15:38:26.492Z,17.22
2017-09-13T15:40:53.880Z,17.24
2017-09-13T15:43:21.263Z,17.31
2017-09-13T15:45:48.654Z,17.23
2017-09-13T15:48:16.034Z,17.24
2017-09-13T15:50:43.427Z,17.17
2017-09-13T15:53:10.811Z,17.22
2017-09-13T15:55:38.212Z,17.20
2017-09-13T15:58:05.590Z,17.15
2017-09-13T16:00:32.992Z,17.11
2017-09-13T16:03:00.374Z,17.17
2017-09-13T16:05:27.764Z,17.08
2017-09-13T16:07:55.150Z,17.09
2017-09-13T16:10:22.546Z,17.04
2017-09-13T16:12:49.930Z,17.03
2017-09-13T16:15:17.330Z,17.00
2017-09-13T16:17:44.714Z,17.12
2017-09-13T16:20:12.099Z,17.16
2017-09-13T16:22:39.488Z,17.21
2017-09-13T16:25:06.879Z,17.04
2017-09-13T16:27:34.294Z,16.97
2017-09-13T16:30:01.684Z,16.93
2017-09-13T16:32:29.078Z,16.98
2017-09-13T16:34:56.488Z,17.03
2017-09-13T16:37:23.879Z,16.87
2017-09-13T16:39:51.272Z,16.77
2017-09-13T16:42:18.727Z,16.68
2017-09-13T16:44:46.107Z,16.78
2017-09-13T16:47:13.498Z,16.73
2017-09-13T16:49:40.880Z,16.70
2017-09-13T16:52:08.280Z,16.59
2017-09-13T16:54:35.658Z,16.54
2017-09-13T16:57:03.052Z,16.46
2017-09-13T16:59:30.438Z,16.24
2017-09-13T17:01:57.823Z,16.32
2017-09-13T17:04:25.208Z,16.27
2017-09-13T17:06:52.616Z,16.22
2017-09-13T17:09:19.991Z,16.36
2017-09-13T17:11:47.386Z,16.24
2017-09-13T17:14:14.783Z,16.19
2017-09-13T17:16:42.169Z,16.22
2017-09-13T17:19:09.554Z,16.08
2017-09-13T17:21:36.939Z,15.94
2017-09-13T17:24:04.336Z,15.93
2017-09-13T17:26:31.730Z,15.79
2017-09-13T17:28:59.189Z,15.65
2017-09-13T17:31:26.561Z,15.73
2017-09-13T17:33:53.951Z,15.55
2017-09-13T17:36:21.346Z,15.74
2017-09-13T17:38:48.738Z,15.59
2017-09-13T17:41:16.125Z,15.49
2017-09-13T17:43:43.519Z,15.39
2017-09-13T17:46:10.902Z,15.30
2017-09-13T17:48:38.299Z,15.32
2017-09-13T17:51:05.678Z,15.39
2017-09-13T17:53:33.071Z,15.31
2017-09-13T17:56:00.456Z,15.25
2017-09-13T17:58:27.839Z,15.32
2017-09-13T18:00:55.225Z,15.26
2017-09-13T18:03:22.602Z,15.29
2017-09-13T18:05:49.993Z,15.33
2017-09-13T18:08:17.375Z,15.32
2017-09-13T18:10:44.763Z,15.33
2017-09-13T18:13:12.148Z,15.30
2017-09-13T18:15:39.551Z,15.25
2017-09-13T18:18:07.030Z,15.16
2017-09-13T18:20:34.491Z,14.98
2017-09-13T18:23:01.958Z,14.84
2017-09-13T18:25:29.354Z,14.98
2017-09-13T18:27:56.763Z,14.85
2017-09-13T18:30:24.170Z,14.90
2017-09-13T18:32:51.558Z,14.97
2017-09-13T18:35:19.040Z,14.89
2017-09-13T18:37:46.411Z,14.83
2017-09-13T18:40:13.814Z,14.89
2017-09-13T18:42:41.202Z,14.74
2017-09-13T18:45:08.576Z,14.74
2017-09-13T18:47:35.972Z,14.66
2017-09-13T18:50:03.359Z,14.70
2017-09-13T18:52:30.755Z,14.65
2017-09-13T18:54:58.155Z,14.67
2017-09-13T18:57:25.560Z,14.83
2017-09-13T18:59:52.931Z,14.93
2017-09-13T19:02:20.338Z,14.86
2017-09-13T19:04:47.743Z,14.67
2017-09-13T19:07:15.136Z,14.69
2017-09-13T19:09:42.521Z,14.61
2017-09-13T19:12:09.911Z,14.53
2017-09-13T19:14:37.290Z,14.59
2017-09-13T19:17:04.686Z,14.52
2017-09-13T19:19:32.064Z,14.56
2017-09-13T19:21:59.451Z,14.75
2017-09-13T19:24:26.844Z,14.96
2017-09-13T19:26:54.235Z,14.80
2017-09-13T19:29:21.616Z,14.79
2017-09-13T19:31:49.008Z,14.67
2017-09-13T19:34:16.387Z,14.83
2017-09-13T19:36:43.804Z,14.69
2017-09-13T19:39:11.199Z,14.67
2017-09-13T19:41:38.615Z,14.62
2017-09-13T19:44:06.017Z,14.71
2017-09-13T19:46:33.395Z,14.67
2017-09-13T19:49:00.782Z,14.78
2017-09-13T19:51:28.168Z,14.69
2017-09-13T19:53:55.563Z,14.56
2017-09-13T19:56:22.943Z,14.62
2017-09-13T19:58:50.341Z,14.52
2017-09-13T20:01:17.730Z,14.56
2017-09-13T20:03:45.214Z,14.59
2017-09-13T20:06:12.595Z,14.50
2017-09-13T20:08:39.983Z,14.70
2017-09-13T20:11:07.368Z,14.64
2017-09-13T20:13:34.757Z,14.52
2017-09-13T20:16:02.147Z,14.38
2017-09-13T20:18:29.535Z,14.52
2017-09-13T20:20:56.910Z,14.42
2017-09-13T20:23:24.312Z,14.41
2017-09-13T20:25:51.691Z,14.39
2017-09-13T20:28:19.179Z,14.46
2017-09-13T20:30:46.562Z,14.54
2017-09-13T20:33:13.959Z,14.29
2017-09-13T20:35:41.342Z,14.09
2017-09-13T20:38:08.719Z,14.22
2017-09-13T20:40:36.102Z,14.36
2017-09-13T20:43:03.482Z,14.31
2017-09-13T20:45:30.958Z,14.33
2017-09-13T20:47:58.338Z,14.48
2017-09-13T20:50:25.726Z,14.07
2017-09-13T20:52:53.108Z,13.99
2017-09-13T20:55:20.503Z,14.12
2017-09-13T20:57:47.885Z,14.20
2017-09-13T21:00:15.274Z,14.22
2017-09-13T21:02:42.663Z,14.11
2017-09-13T21:05:10.052Z,14.05
2017-09-13T21:07:37.430Z,13.90
2017-09-13T21:10:04.814Z,13.72
2017-09-13T21:12:32.207Z,13.90
2017-09-13T21:14:59.596Z,14.09
2017-09-13T21:17:26.985Z,13.79
2017-09-13T21:19:54.375Z,13.84
2017-09-13T21:22:21.909Z,13.95
2017-09-13T21:24:49.287Z,13.94
2017-09-13T21:27:16.676Z,13.98
2017-09-13T21:29:44.072Z,13.94
2017-09-13T21:32:11.449Z,13.71
2017-09-13T21:34:38.872Z,13.75
2017-09-13T21:37:06.256Z,13.63
2017-09-13T21:39:33.676Z,13.62
2017-09-13T21:42:01.068Z,13.74
2017-09-13T21:44:28.451Z,13.56
2017-09-13T21:46:55.847Z,13.43
2017-09-13T21:49:23.227Z,13.44
2017-09-13T21:51:50.615Z,13.40
2017-09-13T21:54:18.004Z,13.35
2017-09-13T21:56:45.404Z,13.44
2017-09-13T21:59:12.792Z,13.42
2017-09-13T22:01:40.178Z,13.50
2017-09-13T22:04:07.564Z,13.51
2017-09-13T22:06:34.961Z,13.52
2017-09-13T22:09:02.344Z,13.47
2017-09-13T22:11:29.799Z,13.53
2017-09-13T22:13:57.183Z,13.47
2017-09-13T22:16:24.579Z,13.42
2017-09-13T22:18:51.962Z,13.19
2017-09-13T22:21:19.362Z,13.19
2017-09-13T22:23:46.743Z,13.27
2017-09-13T22:26:14.138Z,13.18
2017-09-13T22:28:41.524Z,13.33
2017-09-13T22:31:08.906Z,13.24
2017-09-13T22:33:36.298Z,13.39
2017-09-13T22:36:03.703Z,13.58
2017-09-13T22:38:31.107Z,13.78
2017-09-13T22:40:58.560Z,13.67
2017-09-13T22:43:25.947Z,13.56
2017-09-13T22:45:53.335Z,13.28
2017-09-13T22:48:20.731Z,13.57
2017-09-13T22:50:48.110Z,13.35
2017-09-13T22:53:15.507Z,13.36
2017-09-13T22:55:42.895Z,13.30
2017-09-13T22:58:10.282Z,13.44
2017-09-13T23:00:37.662Z,13.43
2017-09-13T23:03:05.055Z,13.39
2017-09-13T23:05:32.438Z,13.42
2017-09-13T23:07:59.836Z,13.39
2017-09-13T23:10:27.206Z,13.51
2017-09-13T23:12:54.594Z,13.53
2017-09-13T23:15:21.979Z,13.47
2017-09-13T23:17:49.370Z,13.61
2017-09-13T23:20:16.758Z,13.50
2017-09-13T23:22:44.139Z,13.35
2017-09-13T23:25:11.524Z,13.51
2017-09-13T23:27:38.913Z,13.46
2017-09-13T23:30:06.303Z,13.39
2017-09-13T23:32:33.687Z,13.49
2017-09-13T23:35:01.078Z,13.55
2017-09-13T23:37:28.463Z,13.61
2017-09-13T23:39:55.860Z,13.71
2017-09-13T23:42:23.239Z,13.64
2017-09-13T23:44:50.630Z,13.75
2017-09-13T23:47:18.011Z,13.63
2017-09-13T23:49:45.394Z,13.62
2017-09-13T23:52:12.783Z,13.58
2017-09-13T23:54:40.163Z,13.63
2017-09-13T23:57:07.549Z,13.66
2017-09-13T23:59:34.949Z,13.71
